Terminal Aerodrome Forecast
Issued by NWS

Home | Current Version | Previous Version | Text Only | Print | Product List | Glossary On
Versions: 1 2 3 4 5 6 7 8 9 10 11 12 13 14
013
FTUS46 KPDT 252320
TAFYKM
TAF
KYKM 252320Z 2600/2624 31008KT P6SM FEW070
     FM260100 33015G25KT P6SM FEW070
     FM260500 29006KT P6SM SCT200
     FM261800 34010KT P6SM SCT200=

USA.gov is the U.S. government's official web portal to all federal, state and local government web resources and services.